Flight Track Log - Related Links

Times and Time Zones

All times are in EDT time to prevent confusion due to time zone crossing. See the SWA253 flight status page for this flight to view local times or setup timezone preferences in your user account.

Time Position Orientation Groundspeed Altitude Reporting Facility
EDT Latitude Longitude Course Direction KTS MPH feet Rate Location/Type
Fri 09:12:20 AM 33.9450 -118.4380 240° Southwest 159 183 1,200  Level FlightAware ADS-B
Fri 09:12:34 AM 33.9370 -118.4480 226° Southwest 173 199 1,600 1,400 Climbing FlightAware ADS-B
Fri 09:12:50 AM 33.9280 -118.4580 223° Southwest 194 223 1,900 1,050 Climbing FlightAware ADS-B
Fri 09:13:14 AM 33.9167 -118.4667 90° East 210 242 2,300 1,714 Climbing Southern California TRACON
Fri 09:13:18 AM 33.9060 -118.4760 214° Southwest 223 257 2,700 2,625 Climbing FlightAware ADS-B
Fri 09:13:46 AM 33.8770 -118.4840 193° South 243 280 3,700 1,778 Climbing FlightAware ADS-B
Fri 09:14:12 AM 33.8508 -118.4900 196° South 242 278 4,300 1,929 Climbing Los Angeles Center
Fri 09:14:14 AM 33.8420 -118.4920 191° South 270 311 4,600 2,897 Climbing FlightAware ADS-B
Fri 09:14:41 AM 33.8090 -118.4980 189° South 281 323 5,700 2,654 Climbing FlightAware ADS-B
Fri 09:15:06 AM 33.7780 -118.5040 189° South 287 330 6,900 2,710 Climbing FlightAware ADS-B
Fri 09:15:12 AM 33.7700 -118.5064 190° South 278 320 7,100 3,214 Climbing Los Angeles Center
Fri 09:15:34 AM 33.7390 -118.5120 190° South 288 331 8,400 2,951 Climbing FlightAware ADS-B
Fri 09:16:13 AM 33.6953 -118.4942 172° South 291 335 10,100 2,000 Climbing Los Angeles Center
Fri 09:17:13 AM 33.6603 -118.3989 114° Southeast 325 374 11,700 2,176 Climbing Los Angeles Center
Fri 09:18:00 AM 33.6333 -118.2205 90° East  Level FlightAware Approximate
Fri 09:22:50 AM 34.0360 -117.8370 114° Southeast 446 513 24,500  Level FlightAware ADS-B
Fri 09:23:30 AM 34.0970 -117.7680 43° Northeast 451 519 25,700 1,800 Climbing FlightAware ADS-B
Fri 09:24:10 AM 34.1530 -117.6910 49° Northeast 457 526 26,900 1,636 Climbing FlightAware ADS-B
Fri 09:24:58 AM 34.2210 -117.6000 48° Northeast 465 535 28,100 1,416 Climbing FlightAware ADS-B
Fri 09:25:39 AM 34.2790 -117.5210 48° Northeast 474 545 29,000 1,317 Climbing FlightAware ADS-B
Fri 09:26:20 AM 34.3400 -117.4380 48° Northeast 481 554 29,900 1,403 Climbing FlightAware ADS-B
Fri 09:26:56 AM 34.3930 -117.3660 48° Northeast 483 556 30,800 1,579 Climbing FlightAware ADS-B
Fri 09:27:36 AM 34.4540 -117.2830 48° Northeast 481 554 31,900 1,610 Climbing FlightAware ADS-B
Fri 09:28:18 AM 34.5140 -117.2000 49° Northeast 476 548 33,000 1,575 Climbing FlightAware ADS-B
Fri 09:28:56 AM 34.5710 -117.1200 49° Northeast 475 547 34,000 1,421 Climbing FlightAware ADS-B
Fri 09:29:34 AM 34.6250 -117.0440 49° Northeast 475 547 34,800 1,098 Climbing FlightAware ADS-B
Fri 09:30:18 AM 34.6880 -116.9550 49° Northeast 476 548 35,500 1,071 Climbing FlightAware ADS-B
Fri 09:30:58 AM 34.7320 -116.8620 60° Northeast 475 547 36,300 1,098 Climbing FlightAware ADS-B
Fri 09:31:40 AM 34.7740 -116.7650 62° Northeast 474 545 37,000 483 Climbing FlightAware ADS-B
Fri 09:32:25 AM 34.8200 -116.6580 62° Northeast 475 547 37,000  Level FlightAware ADS-B
Fri 09:33:05 AM 34.8620 -116.5620 62° Northeast 474 545 37,000  Level FlightAware ADS-B
Fri 09:33:49 AM 34.9060 -116.4600 62° Northeast 472 543 37,000  Level FlightAware ADS-B
Fri 09:34:30 AM 34.9490 -116.3620 62° Northeast 470 541 37,000  Level FlightAware ADS-B
Fri 09:35:14 AM 34.9930 -116.2590 62° Northeast 467 537 37,000  Level FlightAware ADS-B
Fri 09:35:54 AM 35.0330 -116.1670 62° Northeast 467 537 37,000  Level FlightAware ADS-B
Fri 09:36:34 AM 35.0720 -116.0740 63° Northeast 466 536 37,000  Level FlightAware ADS-B
Fri 09:37:14 AM 35.1120 -115.9820 62° Northeast 466 536 37,000  Level FlightAware ADS-B
Fri 09:38:00 AM 35.1580 -115.8730 63° Northeast 467 537 37,000  Level FlightAware ADS-B
Fri 09:38:44 AM 35.2010 -115.7700 63° Northeast 469 540 37,000  Level FlightAware ADS-B
Fri 09:39:26 AM 35.2440 -115.6700 62° Northeast 470 541 37,000  Level FlightAware ADS-B
Fri 09:40:08 AM 35.2840 -115.5740 63° Northeast 471 542 37,000  Level FlightAware ADS-B
Fri 09:40:44 AM 35.3210 -115.4870 62° Northeast 472 543 37,000  Level FlightAware ADS-B
Fri 09:41:32 AM 35.3690 -115.3730 63° Northeast 472 543 37,000  Level FlightAware ADS-B
Fri 09:42:12 AM 35.4080 -115.2800 63° Northeast 472 543 37,000  Level FlightAware ADS-B
Fri 09:42:57 AM 35.4530 -115.1700 63° Northeast 471 542 37,000  Level FlightAware ADS-B
Fri 09:43:35 AM 35.4910 -115.0800 63° Northeast 470 541 37,000  Level FlightAware ADS-B
Fri 09:44:17 AM 35.5320 -114.9780 64° Northeast 470 541 37,000  Level FlightAware ADS-B
Fri 09:44:54 AM 35.5670 -114.8920 63° Northeast 469 540 37,000  Level FlightAware ADS-B
Fri 09:45:36 AM 35.6090 -114.7920 63° Northeast 469 540 37,000  Level FlightAware ADS-B
Fri 09:46:16 AM 35.6480 -114.6970 63° Northeast 467 537 37,000  Level FlightAware ADS-B
Fri 09:46:52 AM 35.6830 -114.6120 63° Northeast 467 537 37,000  Level FlightAware ADS-B
Fri 09:47:36 AM 35.7260 -114.5080 63° Northeast 468 539 37,000  Level FlightAware ADS-B
Fri 09:48:18 AM 35.7660 -114.4090 64° Northeast 468 539 37,000  Level FlightAware ADS-B
Fri 09:48:57 AM 35.8040 -114.3150 63° Northeast 468 539 37,000  Level FlightAware ADS-B
Fri 09:49:41 AM 35.8460 -114.2110 63° Northeast 468 539 37,000  Level FlightAware ADS-B
Fri 09:50:21 AM 35.8830 -114.1180 64° Northeast 468 539 37,000  Level FlightAware ADS-B
Fri 09:51:04 AM 35.9260 -114.0120 63° Northeast 468 539 37,000  Level FlightAware ADS-B
Fri 09:51:46 AM 35.9660 -113.9120 64° Northeast 467 537 37,000  Level FlightAware ADS-B
Fri 09:52:29 AM 36.0070 -113.8080 64° Northeast 468 539 37,000  Level FlightAware ADS-B
Fri 09:53:09 AM 36.0450 -113.7130 64° Northeast 468 539 37,000  Level FlightAware ADS-B
Fri 09:53:49 AM 36.0840 -113.6170 63° Northeast 468 539 37,000  Level FlightAware ADS-B
Fri 09:54:43 AM 36.1350 -113.4880 64° Northeast 470 541 37,000  Level FlightAware ADS-B
Fri 09:55:25 AM 36.1750 -113.3860 64° Northeast 470 541 37,000  Level FlightAware ADS-B
Fri 09:56:05 AM 36.2130 -113.2880 64° Northeast 470 541 37,000  Level FlightAware ADS-B
Fri 09:56:39 AM 36.2450 -113.2060 64° Northeast 470 541 37,000  Level FlightAware ADS-B
Fri 09:57:21 AM 36.2850 -113.1060 64° Northeast 469 540 37,000  Level FlightAware ADS-B
Fri 09:58:05 AM 36.3270 -112.9980 64° Northeast 469 540 37,000  Level FlightAware ADS-B
Fri 09:58:39 AM 36.3580 -112.9170 65° Northeast 467 537 37,000  Level FlightAware ADS-B
Fri 09:59:17 AM 36.3940 -112.8250 64° Northeast 466 536 37,000  Level FlightAware ADS-B
Fri 10:00:05 AM 36.4380 -112.7100 65° Northeast 466 536 37,000  Level FlightAware ADS-B
Fri 10:00:41 AM 36.4720 -112.6230 64° Northeast 468 539 37,000  Level FlightAware ADS-B
Fri 10:01:17 AM 36.5050 -112.5350 65° Northeast 468 539 37,000  Level FlightAware ADS-B
Fri 10:02:04 AM 36.5480 -112.4220 65° Northeast 468 539 37,000  Level FlightAware ADS-B
Fri 10:02:39 AM 36.5820 -112.3340 64° Northeast 467 537 37,000  Level FlightAware ADS-B
Fri 10:03:19 AM 36.6180 -112.2380 65° Northeast 468 539 37,000  Level FlightAware ADS-B
Fri 10:03:51 AM 36.6480 -112.1600 64° Northeast 468 539 37,000  Level FlightAware ADS-B
Fri 10:04:37 AM 36.6900 -112.0490 65° Northeast 466 536 37,000  Level FlightAware ADS-B
Fri 10:05:20 AM 36.7290 -111.9460 65° Northeast 465 535 37,000  Level FlightAware ADS-B
Fri 10:05:51 AM 36.7570 -111.8700 65° Northeast 465 535 37,000  Level FlightAware ADS-B
Fri 10:06:35 AM 36.7970 -111.7650 65° Northeast 464 534 37,000  Level FlightAware ADS-B
Fri 10:07:15 AM 36.8340 -111.6650 65° Northeast 465 535 37,000  Level FlightAware ADS-B
Fri 10:07:59 AM 36.8760 -111.5590 64° Northeast 470 541 37,000 558 Level FlightAware ADS-B
Fri 10:08:41 AM 36.9180 -111.4590 62° Northeast 469 540 37,800 1,071 Climbing FlightAware ADS-B
Fri 10:09:23 AM 36.9600 -111.3590 62° Northeast 466 536 38,500 837 Climbing FlightAware ADS-B
Fri 10:10:07 AM 37.0050 -111.2540 62° Northeast 466 536 39,000 349 Climbing FlightAware ADS-B
Fri 10:10:49 AM 37.0460 -111.1550 63° Northeast 466 536 39,000  Level FlightAware ADS-B
Fri 10:11:44 AM 37.1000 -111.0250 62° Northeast 467 537 39,000  Level FlightAware ADS-B
Fri 10:12:21 AM 37.1380 -110.9330 63° Northeast 466 536 39,000  Level FlightAware ADS-B
Fri 10:12:57 AM 37.1740 -110.8460 63° Northeast 466 536 39,000  Level FlightAware ADS-B
Fri 10:13:37 AM 37.2130 -110.7520 62° Northeast 464 534 39,000  Level FlightAware ADS-B
Fri 10:14:22 AM 37.2540 -110.6560 62° Northeast 464 534 39,000  Level FlightAware ADS-B
Fri 10:15:10 AM 37.2950 -110.5590 62° Northeast 464 534 39,000  Level FlightAware ADS-B
Fri 10:15:50 AM 37.3430 -110.4360 64° Northeast 462 532 39,000  Level FlightAware ADS-B
Fri 10:16:28 AM 37.3800 -110.3460 63° Northeast 463 533 39,000  Level FlightAware ADS-B
Fri 10:17:11 AM 37.4220 -110.2430 63° Northeast 462 532 39,000  Level FlightAware ADS-B
Fri 10:17:54 AM 37.4640 -110.1390 63° Northeast 464 534 39,000  Level FlightAware ADS-B
Fri 10:18:38 AM 37.5060 -110.0340 63° Northeast 464 534 39,000  Level FlightAware ADS-B
Fri 10:19:21 AM 37.5470 -109.9310 63° Northeast 465 535 39,000  Level FlightAware ADS-B
Fri 10:20:02 AM 37.5880 -109.8300 63° Northeast 466 536 39,000  Level FlightAware ADS-B
Fri 10:20:44 AM 37.6280 -109.7300 63° Northeast 465 535 39,000  Level FlightAware ADS-B
Fri 10:21:24 AM 37.6670 -109.6320 63° Northeast 465 535 39,000  Level FlightAware ADS-B
Fri 10:21:55 AM 37.6960 -109.5590 63° Northeast 465 535 39,000  Level FlightAware ADS-B
Fri 10:22:36 AM 37.7370 -109.4560 63° Northeast 464 534 39,000  Level FlightAware ADS-B
Fri 10:23:20 AM 37.7780 -109.3510 64° Northeast 463 533 39,000  Level FlightAware ADS-B
Fri 10:24:00 AM 37.8170 -109.2530 63° Northeast 466 536 39,000  Level FlightAware ADS-B
Fri 10:24:40 AM 37.8550 -109.1550 64° Northeast 467 537 39,000  Level FlightAware ADS-B
Fri 10:25:22 AM 37.8950 -109.0520 64° Northeast 467 537 39,000  Level FlightAware ADS-B
Fri 10:26:07 AM 37.9370 -108.9460 63° Northeast 463 533 39,000  Level FlightAware ADS-B
Fri 10:26:39 AM 37.9680 -108.8670 64° Northeast 462 532 39,000  Level FlightAware ADS-B
Fri 10:27:23 AM 38.0090 -108.7600 64° Northeast 463 533 39,000  Level FlightAware ADS-B
Fri 10:28:03 AM 38.0470 -108.6610 64° Northeast 463 533 39,000  Level FlightAware ADS-B
Fri 10:28:40 AM 38.0820 -108.5710 64° Northeast 461 531 39,000  Level FlightAware ADS-B
Fri 10:29:22 AM 38.1220 -108.4680 64° Northeast 460 529 39,000  Level FlightAware ADS-B
Fri 10:30:04 AM 38.1600 -108.3680 64° Northeast 460 529 39,000  Level FlightAware ADS-B
Fri 10:30:44 AM 38.1970 -108.2720 64° Northeast 462 532 39,000  Level FlightAware ADS-B
Fri 10:31:27 AM 38.2370 -108.1660 64° Northeast 462 532 39,000  Level FlightAware ADS-B
Fri 10:32:09 AM 38.2750 -108.0640 65° Northeast 463 533 39,000  Level FlightAware ADS-B
Fri 10:32:53 AM 38.3170 -107.9540 64° Northeast 464 534 39,000  Level FlightAware ADS-B
Fri 10:33:31 AM 38.3510 -107.8630 65° Northeast 464 534 39,000  Level FlightAware ADS-B
Fri 10:34:06 AM 38.3840 -107.7750 64° Northeast 462 532 39,000  Level FlightAware ADS-B
Fri 10:34:53 AM 38.4270 -107.6610 64° Northeast 459 528 39,000  Level FlightAware ADS-B
Fri 10:35:28 AM 38.4600 -107.5770 63° Northeast 456 525 39,000  Level FlightAware ADS-B
Fri 10:36:09 AM 38.5040 -107.4790 60° Northeast 456 525 39,000  Level FlightAware ADS-B
Fri 10:36:51 AM 38.5480 -107.3810 60° Northeast 455 524 39,000  Level FlightAware ADS-B
Fri 10:37:31 AM 38.5890 -107.2890 60° Northeast 455 524 39,000  Level FlightAware ADS-B
Fri 10:38:10 AM 38.6290 -107.1980 61° Northeast 454 522 39,000  Level FlightAware ADS-B
Fri 10:38:50 AM 38.6700 -107.1070 60° Northeast 450 518 39,000 -621 Level FlightAware ADS-B
Fri 10:39:37 AM 38.7200 -106.9950 60° Northeast 446 513 38,100 -1,071 Descending FlightAware ADS-B
Fri 10:40:14 AM 38.7560 -106.9130 61° Northeast 445 512 37,500 -1,000 Descending FlightAware ADS-B
Fri 10:40:55 AM 38.7980 -106.8160 61° Northeast 450 518 36,800 -1,000 Descending FlightAware ADS-B
Fri 10:41:38 AM 38.8420 -106.7170 60° Northeast 449 517 36,100 -963 Descending FlightAware ADS-B
Fri 10:42:16 AM 38.8810 -106.6300 60° Northeast 450 518 35,500 -923 Descending FlightAware ADS-B
Fri 10:42:56 AM 38.9230 -106.5390 59° Northeast 445 512 34,900 -963 Descending FlightAware ADS-B
Fri 10:43:37 AM 38.9680 -106.4430 59° Northeast 448 516 34,200 -975 Descending FlightAware ADS-B
Fri 10:44:16 AM 39.0090 -106.3550 59° Northeast 451 519 33,600 -1,098 Descending FlightAware ADS-B
Fri 10:44:59 AM 39.0540 -106.2540 60° Northeast 449 517 32,700 -1,909 Descending FlightAware ADS-B
Fri 10:45:44 AM 39.1000 -106.1520 60° Northeast 448 516 30,800 -1,758 Descending FlightAware ADS-B
Fri 10:46:38 AM 39.1520 -106.0360 60° Northeast 447 514 29,800 -667 Descending FlightAware ADS-B
Fri 10:47:14 AM 39.1840 -105.9650 60° Northeast 447 514 29,800  Level FlightAware ADS-B
Fri 10:47:50 AM 39.2150 -105.8940 61° Northeast 447 514 29,800  Level FlightAware ADS-B
Fri 10:48:38 AM 39.2580 -105.8000 59° Northeast 447 514 29,800 -3,692 Level FlightAware ADS-B
Fri 10:49:21 AM 39.3060 -105.6860 61° Northeast 410 472 24,200 -5,838 Descending FlightAware ADS-B
Fri 10:49:52 AM 39.3380 -105.6120 61° Northeast 388 447 22,600 -2,160 Descending FlightAware ADS-B
Fri 10:50:36 AM 39.3780 -105.5220 60° Northeast 375 432 21,500 -1,244 Descending FlightAware ADS-B
Fri 10:51:14 AM 39.4100 -105.4530 59° Northeast 353 406 20,900 -1,244 Descending FlightAware ADS-B
Fri 10:51:58 AM 39.4500 -105.3770 56° Northeast 345 397 19,800 -1,535 Descending FlightAware ADS-B
Fri 10:52:40 AM 39.4880 -105.3050 56° Northeast 339 390 18,700 -1,605 Descending FlightAware ADS-B
Fri 10:53:24 AM 39.5260 -105.2320 56° Northeast 335 386 17,500 -1,429 Descending FlightAware ADS-B
Fri 10:54:04 AM 39.5600 -105.1660 56° Northeast 331 381 16,700 -1,500 Descending FlightAware ADS-B
Fri 10:54:48 AM 39.5970 -105.0920 57° Northeast 333 383 15,400 -1,714 Descending FlightAware ADS-B
Fri 10:55:28 AM 39.6300 -105.0250 57° Northeast 331 381 14,300 -1,535 Descending FlightAware ADS-B
Fri 10:56:14 AM 39.6640 -104.9450 61° Northeast 326 375 13,200 -1,000 Descending FlightAware ADS-B
Fri 10:56:52 AM 39.6800 -104.8770 73° East 320 368 12,900 -220 Descending FlightAware ADS-B
Fri 10:57:36 AM 39.6980 -104.7970 74° East 293 337 12,900 -209 Level FlightAware ADS-B
Fri 10:58:18 AM 39.7170 -104.7310 69° East 269 310 12,600 -692 Descending FlightAware ADS-B
Fri 10:58:54 AM 39.7370 -104.6810 63° Northeast 261 300 12,000 -1,077 Descending FlightAware ADS-B
Fri 10:59:36 AM 39.7510 -104.6190 74° East 267 307 11,200 -825 Descending FlightAware ADS-B
Fri 11:00:14 AM 39.7500 -104.5580 91° East 264 304 10,900 -500 Descending FlightAware ADS-B
Fri 11:01:00 AM 39.7490 -104.4870 91° East 256 295 10,500 -767 Descending FlightAware ADS-B
Fri 11:01:40 AM 39.7490 -104.4250 90° East 255 293 9,800 -1,071 Descending FlightAware ADS-B
Fri 11:01:56 AM 39.7540 -104.4020 74° East 255 293 9,500 -1,071 Descending FlightAware ADS-B
Fri 11:02:08 AM 39.7640 -104.3890 45° Northeast 250 288 9,300 -889 Descending FlightAware ADS-B
Fri 11:02:23 AM 39.7790 -104.3820 20° North 244 281 9,100 -955 Descending FlightAware ADS-B
Fri 11:02:52 AM 39.8090 -104.3740 12° North 243 280 8,600 -1,015 Descending FlightAware ADS-B
Fri 11:03:28 AM 39.8500 -104.3810 353° North 235 270 8,000 -581 Descending FlightAware ADS-B
Fri 11:03:54 AM 39.8730 -104.4000 328° Northwest 226 260 8,000  Level FlightAware ADS-B
Fri 11:04:06 AM 39.8790 -104.4140 299° West 225 259 8,000 -429 Level FlightAware ADS-B
Fri 11:04:36 AM 39.8770 -104.4540 266° West 230 265 7,700 -828 Descending FlightAware ADS-B
Fri 11:05:04 AM 39.8760 -104.4930 268° West 231 266 7,200 -1,050 Descending FlightAware ADS-B
Fri 11:05:16 AM 39.8760 -104.5110 270° West 222 255 7,000 -1,143 Descending FlightAware ADS-B
Fri 11:05:46 AM 39.8760 -104.5480 270° West 199 229 6,400 -1,111 Descending FlightAware ADS-B
Fri 11:06:10 AM 39.8770 -104.5750 273° West 176 203 6,000 -1,024 Descending FlightAware ADS-B
Fri 11:06:27 AM 39.8770 -104.5920 270° West 166 191 5,700 -1,059 Descending FlightAware ADS-B
Fri 11:08:07 AM 39.8780 -104.6610 271° West 26 30 -3,420 Descending FlightAware ADS-B
Fri 11:08:32 AM 39.8780 -104.6640 270° West 26 30  Level FlightAware ADS-B
Fri 11:15:00 AM 39.8617 -104.6732 180° South  Level Estimated
Fri 11:16:00 AM 39.8617 -104.6732 180° South  Level Estimated
Fri 11:17:00 AM 39.8617 -104.6732 180° South  Level Estimated

Login

Don't have an account? Register now (free) for customized features, flight alerts, and more!